sensor_id;sensor_type;location;lat;lon;timestamp;P1;durP1;ratioP1;P2;durP2;ratioP2
33553;SDS011;19885;42.208;24.952;2023-03-01T00:00:40;2.33;;;2.13;;
33553;SDS011;19885;42.208;24.952;2023-03-01T00:03:06;3.37;;;2.47;;
33553;SDS011;19885;42.208;24.952;2023-03-01T00:05:32;3.33;;;2.30;;
33553;SDS011;19885;42.208;24.952;2023-03-01T00:08:01;4.03;;;2.70;;
33553;SDS011;19885;42.208;24.952;2023-03-01T00:10:26;4.80;;;3.00;;
33553;SDS011;19885;42.208;24.952;2023-03-01T00:12:55;2.33;;;2.13;;
33553;SDS011;19885;42.208;24.952;2023-03-01T00:15:21;3.30;;;2.67;;
33553;SDS011;19885;42.208;24.952;2023-03-01T00:17:49;2.87;;;2.57;;
33553;SDS011;19885;42.208;24.952;2023-03-01T00:20:15;3.50;;;2.57;;
33553;SDS011;19885;42.208;24.952;2023-03-01T00:22:42;3.40;;;2.63;;
33553;SDS011;19885;42.208;24.952;2023-03-01T00:25:07;3.53;;;2.83;;
33553;SDS011;19885;42.208;24.952;2023-03-01T00:27:35;3.53;;;2.47;;
33553;SDS011;19885;42.208;24.952;2023-03-01T00:30:01;2.40;;;2.20;;
33553;SDS011;19885;42.208;24.952;2023-03-01T00:32:30;3.47;;;2.37;;
33553;SDS011;19885;42.208;24.952;2023-03-01T00:34:58;3.00;;;1.97;;
33553;SDS011;19885;42.208;24.952;2023-03-01T00:37:32;3.07;;;1.97;;
33553;SDS011;19885;42.208;24.952;2023-03-01T00:39:58;2.70;;;2.03;;
33553;SDS011;19885;42.208;24.952;2023-03-01T00:42:23;2.70;;;2.40;;
33553;SDS011;19885;42.208;24.952;2023-03-01T00:44:49;2.50;;;2.30;;
33553;SDS011;19885;42.208;24.952;2023-03-01T00:47:17;2.00;;;1.80;;
33553;SDS011;19885;42.208;24.952;2023-03-01T00:49:43;2.70;;;2.50;;
33553;SDS011;19885;42.208;24.952;2023-03-01T00:52:11;3.70;;;1.90;;
33553;SDS011;19885;42.208;24.952;2023-03-01T00:54:37;2.93;;;2.00;;
33553;SDS011;19885;42.208;24.952;2023-03-01T00:57:03;2.20;;;2.00;;
33553;SDS011;19885;42.208;24.952;2023-03-01T00:59:29;3.97;;;1.77;;
33553;SDS011;19885;42.208;24.952;2023-03-01T01:01:55;1.87;;;1.70;;
33553;SDS011;19885;42.208;24.952;2023-03-01T01:04:21;1.67;;;1.57;;
33553;SDS011;19885;42.208;24.952;2023-03-01T01:06:47;2.30;;;1.70;;
33553;SDS011;19885;42.208;24.952;2023-03-01T01:09:14;2.87;;;1.70;;
33553;SDS011;19885;42.208;24.952;2023-03-01T01:11:45;1.60;;;1.50;;
33553;SDS011;19885;42.208;24.952;2023-03-01T01:14:13;3.30;;;2.00;;
33553;SDS011;19885;42.208;24.952;2023-03-01T01:16:40;2.50;;;2.07;;
33553;SDS011;19885;42.208;24.952;2023-03-01T01:19:06;1.63;;;1.50;;
33553;SDS011;19885;42.208;24.952;2023-03-01T01:21:32;1.67;;;1.53;;
33553;SDS011;19885;42.208;24.952;2023-03-01T01:24:02;1.70;;;1.60;;
33553;SDS011;19885;42.208;24.952;2023-03-01T01:26:31;1.70;;;1.60;;
33553;SDS011;19885;42.208;24.952;2023-03-01T01:28:58;1.83;;;1.53;;
33553;SDS011;19885;42.208;24.952;2023-03-01T01:31:28;1.87;;;1.53;;
33553;SDS011;19885;42.208;24.952;2023-03-01T01:33:55;1.97;;;1.83;;
33553;SDS011;19885;42.208;24.952;2023-03-01T01:36:22;1.93;;;1.80;;
33553;SDS011;19885;42.208;24.952;2023-03-01T01:38:48;1.70;;;1.53;;
33553;SDS011;19885;42.208;24.952;2023-03-01T01:41:15;2.50;;;1.50;;
33553;SDS011;19885;42.208;24.952;2023-03-01T01:43:46;3.73;;;1.83;;
33553;SDS011;19885;42.208;24.952;2023-03-01T01:49:04;2.20;;;1.70;;
33553;SDS011;19885;42.208;24.952;2023-03-01T01:51:35;2.17;;;1.60;;
33553;SDS011;19885;42.208;24.952;2023-03-01T01:54:21;2.03;;;1.70;;
33553;SDS011;19885;42.208;24.952;2023-03-01T01:56:57;1.90;;;1.70;;
33553;SDS011;19885;42.208;24.952;2023-03-01T01:59:30;2.10;;;1.53;;
33553;SDS011;19885;42.208;24.952;2023-03-01T02:01:57;5.37;;;1.97;;
33553;SDS011;19885;42.208;24.952;2023-03-01T02:04:29;1.67;;;1.50;;
33553;SDS011;19885;42.208;24.952;2023-03-01T02:07:01;2.23;;;2.03;;
33553;SDS011;19885;42.208;24.952;2023-03-01T02:09:47;1.93;;;1.60;;
33553;SDS011;19885;42.208;24.952;2023-03-01T02:12:16;1.73;;;1.60;;
33553;SDS011;19885;42.208;24.952;2023-03-01T02:14:43;1.60;;;1.50;;
33553;SDS011;19885;42.208;24.952;2023-03-01T02:17:11;1.30;;;1.20;;
33553;SDS011;19885;42.208;24.952;2023-03-01T02:19:50;2.03;;;1.80;;
33553;SDS011;19885;42.208;24.952;2023-03-01T02:22:32;1.67;;;1.37;;
33553;SDS011;19885;42.208;24.952;2023-03-01T02:30:20;3.13;;;1.93;;
33553;SDS011;19885;42.208;24.952;2023-03-01T02:32:47;3.17;;;1.60;;
33553;SDS011;19885;42.208;24.952;2023-03-01T02:35:15;1.60;;;1.50;;
33553;SDS011;19885;42.208;24.952;2023-03-01T02:37:43;2.10;;;1.40;;
33553;SDS011;19885;42.208;24.952;2023-03-01T02:40:11;1.30;;;1.23;;
33553;SDS011;19885;42.208;24.952;2023-03-01T02:42:45;1.83;;;1.73;;
33553;SDS011;19885;42.208;24.952;2023-03-01T02:45:18;1.63;;;1.53;;
33553;SDS011;19885;42.208;24.952;2023-03-01T02:47:44;2.00;;;1.80;;
33553;SDS011;19885;42.208;24.952;2023-03-01T02:50:16;1.53;;;1.43;;
33553;SDS011;19885;42.208;24.952;2023-03-01T02:53:03;1.57;;;1.43;;
33553;SDS011;19885;42.208;24.952;2023-03-01T02:55:30;1.80;;;1.60;;
33553;SDS011;19885;42.208;24.952;2023-03-01T02:57:55;1.97;;;1.77;;
33553;SDS011;19885;42.208;24.952;2023-03-01T03:00:29;1.50;;;1.40;;
33553;SDS011;19885;42.208;24.952;2023-03-01T03:03:00;2.23;;;1.73;;
33553;SDS011;19885;42.208;24.952;2023-03-01T03:05:28;3.40;;;1.83;;
33553;SDS011;19885;42.208;24.952;2023-03-01T03:07:56;2.07;;;1.87;;
33553;SDS011;19885;42.208;24.952;2023-03-01T03:10:27;17.83;;;2.37;;
33553;SDS011;19885;42.208;24.952;2023-03-01T03:13:01;2.17;;;1.80;;
33553;SDS011;19885;42.208;24.952;2023-03-01T03:15:32;2.13;;;1.77;;
33553;SDS011;19885;42.208;24.952;2023-03-01T03:18:01;7.63;;;2.13;;
33553;SDS011;19885;42.208;24.952;2023-03-01T03:20:28;6.37;;;2.03;;
33553;SDS011;19885;42.208;24.952;2023-03-01T03:22:55;2.37;;;2.10;;
33553;SDS011;19885;42.208;24.952;2023-03-01T03:25:24;2.13;;;1.93;;
33553;SDS011;19885;42.208;24.952;2023-03-01T03:27:51;7.00;;;2.40;;
33553;SDS011;19885;42.208;24.952;2023-03-01T03:30:22;2.43;;;2.20;;
33553;SDS011;19885;42.208;24.952;2023-03-01T03:32:52;3.57;;;1.90;;
33553;SDS011;19885;42.208;24.952;2023-03-01T03:35:22;6.60;;;2.60;;
33553;SDS011;19885;42.208;24.952;2023-03-01T03:37:51;10.17;;;2.33;;
33553;SDS011;19885;42.208;24.952;2023-03-01T03:40:27;1.93;;;1.60;;
33553;SDS011;19885;42.208;24.952;2023-03-01T03:42:55;1.90;;;1.70;;
33553;SDS011;19885;42.208;24.952;2023-03-01T03:45:20;2.03;;;1.80;;
33553;SDS011;19885;42.208;24.952;2023-03-01T03:47:48;2.03;;;1.60;;
33553;SDS011;19885;42.208;24.952;2023-03-01T03:50:15;2.10;;;1.97;;
33553;SDS011;19885;42.208;24.952;2023-03-01T03:52:42;2.37;;;2.17;;
33553;SDS011;19885;42.208;24.952;2023-03-01T03:55:15;2.40;;;2.20;;
33553;SDS011;19885;42.208;24.952;2023-03-01T03:57:45;2.77;;;1.90;;
33553;SDS011;19885;42.208;24.952;2023-03-01T04:00:20;2.03;;;1.93;;
33553;SDS011;19885;42.208;24.952;2023-03-01T04:02:49;2.33;;;1.87;;
33553;SDS011;19885;42.208;24.952;2023-03-01T04:05:17;2.03;;;1.93;;
33553;SDS011;19885;42.208;24.952;2023-03-01T04:07:50;2.17;;;1.97;;
33553;SDS011;19885;42.208;24.952;2023-03-01T04:10:31;3.00;;;2.60;;
33553;SDS011;19885;42.208;24.952;2023-03-01T04:13:09;4.27;;;2.07;;
33553;SDS011;19885;42.208;24.952;2023-03-01T04:15:37;2.00;;;1.60;;
33553;SDS011;19885;42.208;24.952;2023-03-01T04:18:04;2.37;;;1.83;;
33553;SDS011;19885;42.208;24.952;2023-03-01T04:20:31;1.90;;;1.70;;
33553;SDS011;19885;42.208;24.952;2023-03-01T04:25:46;3.33;;;2.10;;
33553;SDS011;19885;42.208;24.952;2023-03-01T04:28:20;5.47;;;1.70;;
33553;SDS011;19885;42.208;24.952;2023-03-01T04:30:51;1.83;;;1.73;;
33553;SDS011;19885;42.208;24.952;2023-03-01T04:33:17;2.03;;;1.93;;
33553;SDS011;19885;42.208;24.952;2023-03-01T04:35:43;2.00;;;1.80;;
33553;SDS011;19885;42.208;24.952;2023-03-01T04:38:09;2.17;;;1.97;;
33553;SDS011;19885;42.208;24.952;2023-03-01T04:40:35;2.40;;;1.90;;
33553;SDS011;19885;42.208;24.952;2023-03-01T04:43:02;6.27;;;2.60;;
33553;SDS011;19885;42.208;24.952;2023-03-01T04:45:28;2.07;;;1.87;;
33553;SDS011;19885;42.208;24.952;2023-03-01T04:47:54;2.00;;;1.80;;
33553;SDS011;19885;42.208;24.952;2023-03-01T04:50:23;2.50;;;1.93;;
33553;SDS011;19885;42.208;24.952;2023-03-01T04:52:51;2.73;;;1.90;;
33553;SDS011;19885;42.208;24.952;2023-03-01T04:55:17;1.67;;;1.57;;
33553;SDS011;19885;42.208;24.952;2023-03-01T04:57:43;1.67;;;1.57;;
33553;SDS011;19885;42.208;24.952;2023-03-01T05:00:10;3.17;;;1.97;;
33553;SDS011;19885;42.208;24.952;2023-03-01T05:02:54;2.23;;;1.90;;
33553;SDS011;19885;42.208;24.952;2023-03-01T05:08:00;2.37;;;2.00;;
33553;SDS011;19885;42.208;24.952;2023-03-01T05:10:28;3.23;;;2.60;;
33553;SDS011;19885;42.208;24.952;2023-03-01T05:12:56;2.27;;;2.07;;
33553;SDS011;19885;42.208;24.952;2023-03-01T05:15:29;2.90;;;2.33;;
33553;SDS011;19885;42.208;24.952;2023-03-01T05:17:57;8.10;;;2.50;;
33553;SDS011;19885;42.208;24.952;2023-03-01T05:20:24;4.83;;;4.33;;
33553;SDS011;19885;42.208;24.952;2023-03-01T05:22:51;13.93;;;7.60;;
33553;SDS011;19885;42.208;24.952;2023-03-01T05:25:19;8.00;;;5.70;;
33553;SDS011;19885;42.208;24.952;2023-03-01T05:27:46;5.20;;;4.33;;
33553;SDS011;19885;42.208;24.952;2023-03-01T05:30:12;5.93;;;4.50;;
33553;SDS011;19885;42.208;24.952;2023-03-01T05:32:45;3.83;;;3.17;;
33553;SDS011;19885;42.208;24.952;2023-03-01T05:35:13;3.33;;;2.63;;
33553;SDS011;19885;42.208;24.952;2023-03-01T05:37:41;3.23;;;2.83;;
33553;SDS011;19885;42.208;24.952;2023-03-01T05:40:10;4.20;;;3.27;;
33553;SDS011;19885;42.208;24.952;2023-03-01T05:42:47;3.60;;;3.20;;
33553;SDS011;19885;42.208;24.952;2023-03-01T05:45:15;3.97;;;3.03;;
33553;SDS011;19885;42.208;24.952;2023-03-01T05:47:42;6.77;;;3.20;;
33553;SDS011;19885;42.208;24.952;2023-03-01T05:50:19;3.87;;;2.47;;
33553;SDS011;19885;42.208;24.952;2023-03-01T05:52:48;5.23;;;3.67;;
33553;SDS011;19885;42.208;24.952;2023-03-01T05:55:20;5.83;;;4.87;;
33553;SDS011;19885;42.208;24.952;2023-03-01T05:57:46;4.20;;;2.90;;
33553;SDS011;19885;42.208;24.952;2023-03-01T06:00:13;5.27;;;3.73;;
33553;SDS011;19885;42.208;24.952;2023-03-01T06:02:40;5.27;;;3.00;;
33553;SDS011;19885;42.208;24.952;2023-03-01T06:05:06;3.37;;;2.77;;
33553;SDS011;19885;42.208;24.952;2023-03-01T06:07:33;3.27;;;2.80;;
33553;SDS011;19885;42.208;24.952;2023-03-01T06:09:59;4.57;;;3.00;;
33553;SDS011;19885;42.208;24.952;2023-03-01T06:12:25;4.47;;;3.87;;
33553;SDS011;19885;42.208;24.952;2023-03-01T06:14:50;5.60;;;2.40;;
33553;SDS011;19885;42.208;24.952;2023-03-01T06:17:16;3.73;;;2.53;;
33553;SDS011;19885;42.208;24.952;2023-03-01T06:19:42;3.53;;;3.27;;
33553;SDS011;19885;42.208;24.952;2023-03-01T06:22:07;4.87;;;2.97;;
33553;SDS011;19885;42.208;24.952;2023-03-01T06:24:33;3.80;;;2.97;;
33553;SDS011;19885;42.208;24.952;2023-03-01T06:26:59;4.13;;;3.53;;
33553;SDS011;19885;42.208;24.952;2023-03-01T06:29:25;5.10;;;3.20;;
33553;SDS011;19885;42.208;24.952;2023-03-01T06:31:51;3.67;;;2.67;;
33553;SDS011;19885;42.208;24.952;2023-03-01T06:34:17;3.30;;;2.80;;
33553;SDS011;19885;42.208;24.952;2023-03-01T06:36:43;2.73;;;2.53;;
33553;SDS011;19885;42.208;24.952;2023-03-01T06:39:08;5.13;;;3.53;;
33553;SDS011;19885;42.208;24.952;2023-03-01T06:41:34;2.87;;;2.67;;
33553;SDS011;19885;42.208;24.952;2023-03-01T06:44:00;14.27;;;2.70;;
33553;SDS011;19885;42.208;24.952;2023-03-01T06:46:26;2.80;;;2.60;;
33553;SDS011;19885;42.208;24.952;2023-03-01T06:48:51;2.70;;;2.50;;
33553;SDS011;19885;42.208;24.952;2023-03-01T06:51:17;3.43;;;2.40;;
33553;SDS011;19885;42.208;24.952;2023-03-01T06:53:45;4.17;;;2.60;;
33553;SDS011;19885;42.208;24.952;2023-03-01T06:56:11;2.57;;;2.10;;
33553;SDS011;19885;42.208;24.952;2023-03-01T06:58:37;3.30;;;2.70;;
33553;SDS011;19885;42.208;24.952;2023-03-01T07:01:06;3.87;;;2.40;;
33553;SDS011;19885;42.208;24.952;2023-03-01T07:03:32;3.10;;;2.33;;
33553;SDS011;19885;42.208;24.952;2023-03-01T07:05:59;2.83;;;2.40;;
33553;SDS011;19885;42.208;24.952;2023-03-01T07:08:25;2.40;;;2.10;;
33553;SDS011;19885;42.208;24.952;2023-03-01T07:10:55;2.17;;;1.93;;
33553;SDS011;19885;42.208;24.952;2023-03-01T07:13:22;2.13;;;1.93;;
33553;SDS011;19885;42.208;24.952;2023-03-01T07:15:48;4.87;;;2.17;;
33553;SDS011;19885;42.208;24.952;2023-03-01T07:18:14;2.20;;;1.87;;
33553;SDS011;19885;42.208;24.952;2023-03-01T07:20:40;3.00;;;2.20;;
33553;SDS011;19885;42.208;24.952;2023-03-01T07:23:06;2.53;;;2.13;;
33553;SDS011;19885;42.208;24.952;2023-03-01T07:25:32;2.43;;;2.13;;
33553;SDS011;19885;42.208;24.952;2023-03-01T07:28:01;1.63;;;1.53;;
33553;SDS011;19885;42.208;24.952;2023-03-01T07:30:27;1.73;;;1.63;;
33553;SDS011;19885;42.208;24.952;2023-03-01T07:32:54;2.00;;;1.87;;
33553;SDS011;19885;42.208;24.952;2023-03-01T07:35:20;2.07;;;1.57;;
33553;SDS011;19885;42.208;24.952;2023-03-01T07:37:49;1.93;;;1.73;;
33553;SDS011;19885;42.208;24.952;2023-03-01T07:40:15;6.40;;;1.90;;
33553;SDS011;19885;42.208;24.952;2023-03-01T07:42:41;1.83;;;1.70;;
33553;SDS011;19885;42.208;24.952;2023-03-01T07:45:07;2.63;;;2.10;;
33553;SDS011;19885;42.208;24.952;2023-03-01T07:47:33;2.50;;;1.97;;
33553;SDS011;19885;42.208;24.952;2023-03-01T07:49:59;2.73;;;2.30;;
33553;SDS011;19885;42.208;24.952;2023-03-01T07:52:26;2.77;;;2.13;;
33553;SDS011;19885;42.208;24.952;2023-03-01T07:54:52;2.10;;;1.77;;
33553;SDS011;19885;42.208;24.952;2023-03-01T07:57:17;2.30;;;2.10;;
33553;SDS011;19885;42.208;24.952;2023-03-01T07:59:43;2.60;;;2.13;;
33553;SDS011;19885;42.208;24.952;2023-03-01T08:02:10;2.40;;;2.20;;
33553;SDS011;19885;42.208;24.952;2023-03-01T08:04:36;1.93;;;1.67;;
33553;SDS011;19885;42.208;24.952;2023-03-01T08:07:04;2.10;;;1.80;;
33553;SDS011;19885;42.208;24.952;2023-03-01T08:09:31;2.77;;;2.33;;
33553;SDS011;19885;42.208;24.952;2023-03-01T08:11:57;2.77;;;2.30;;
33553;SDS011;19885;42.208;24.952;2023-03-01T08:14:26;4.43;;;2.67;;
33553;SDS011;19885;42.208;24.952;2023-03-01T08:16:52;2.83;;;1.80;;
33553;SDS011;19885;42.208;24.952;2023-03-01T08:19:18;2.10;;;2.00;;
33553;SDS011;19885;42.208;24.952;2023-03-01T08:21:44;3.50;;;1.97;;
33553;SDS011;19885;42.208;24.952;2023-03-01T08:24:10;2.70;;;2.07;;
33553;SDS011;19885;42.208;24.952;2023-03-01T08:26:35;2.77;;;2.33;;
33553;SDS011;19885;42.208;24.952;2023-03-01T08:29:02;5.63;;;2.30;;
33553;SDS011;19885;42.208;24.952;2023-03-01T08:31:36;2.00;;;1.63;;
33553;SDS011;19885;42.208;24.952;2023-03-01T08:34:06;3.20;;;2.13;;
33553;SDS011;19885;42.208;24.952;2023-03-01T08:36:37;2.50;;;2.30;;
33553;SDS011;19885;42.208;24.952;2023-03-01T08:39:05;1.97;;;1.83;;
33553;SDS011;19885;42.208;24.952;2023-03-01T08:41:32;3.47;;;1.77;;
33553;SDS011;19885;42.208;24.952;2023-03-01T08:43:58;2.53;;;2.30;;
33553;SDS011;19885;42.208;24.952;2023-03-01T08:46:27;3.10;;;2.20;;
33553;SDS011;19885;42.208;24.952;2023-03-01T08:48:55;4.43;;;2.47;;
33553;SDS011;19885;42.208;24.952;2023-03-01T08:51:21;2.60;;;2.17;;
33553;SDS011;19885;42.208;24.952;2023-03-01T08:53:50;6.50;;;2.97;;
33553;SDS011;19885;42.208;24.952;2023-03-01T08:56:17;3.27;;;2.30;;
33553;SDS011;19885;42.208;24.952;2023-03-01T08:58:45;3.47;;;2.00;;
33553;SDS011;19885;42.208;24.952;2023-03-01T09:01:12;3.37;;;2.27;;
33553;SDS011;19885;42.208;24.952;2023-03-01T09:03:40;5.67;;;2.83;;
33553;SDS011;19885;42.208;24.952;2023-03-01T09:06:06;5.57;;;2.60;;
33553;SDS011;19885;42.208;24.952;2023-03-01T09:08:39;3.20;;;2.00;;
33553;SDS011;19885;42.208;24.952;2023-03-01T09:11:07;5.90;;;3.20;;
33553;SDS011;19885;42.208;24.952;2023-03-01T09:13:37;3.33;;;2.50;;
33553;SDS011;19885;42.208;24.952;2023-03-01T09:16:04;5.93;;;3.13;;
33553;SDS011;19885;42.208;24.952;2023-03-01T09:18:32;7.90;;;3.30;;
33553;SDS011;19885;42.208;24.952;2023-03-01T09:21:02;2.93;;;1.97;;
33553;SDS011;19885;42.208;24.952;2023-03-01T09:23:36;2.90;;;2.53;;
33553;SDS011;19885;42.208;24.952;2023-03-01T09:26:07;6.53;;;3.73;;
33553;SDS011;19885;42.208;24.952;2023-03-01T09:28:35;4.97;;;2.40;;
33553;SDS011;19885;42.208;24.952;2023-03-01T09:31:06;4.47;;;2.07;;
33553;SDS011;19885;42.208;24.952;2023-03-01T09:33:32;10.57;;;2.40;;
33553;SDS011;19885;42.208;24.952;2023-03-01T09:35:59;2.53;;;1.93;;
33553;SDS011;19885;42.208;24.952;2023-03-01T09:38:29;2.77;;;2.03;;
33553;SDS011;19885;42.208;24.952;2023-03-01T09:40:56;3.50;;;2.47;;
33553;SDS011;19885;42.208;24.952;2023-03-01T09:45:55;4.03;;;2.37;;
33553;SDS011;19885;42.208;24.952;2023-03-01T09:48:29;22.77;;;12.30;;
33553;SDS011;19885;42.208;24.952;2023-03-01T09:51:02;26.80;;;16.20;;
33553;SDS011;19885;42.208;24.952;2023-03-01T09:53:34;5.57;;;2.77;;
33553;SDS011;19885;42.208;24.952;2023-03-01T10:01:23;3.93;;;2.47;;
33553;SDS011;19885;42.208;24.952;2023-03-01T10:04:11;3.17;;;2.27;;
33553;SDS011;19885;42.208;24.952;2023-03-01T10:06:38;3.63;;;2.50;;
33553;SDS011;19885;42.208;24.952;2023-03-01T10:09:12;4.30;;;2.83;;
33553;SDS011;19885;42.208;24.952;2023-03-01T10:11:43;3.80;;;2.27;;
33553;SDS011;19885;42.208;24.952;2023-03-01T10:14:22;12.53;;;6.47;;
33553;SDS011;19885;42.208;24.952;2023-03-01T10:22:48;6.53;;;4.27;;
33553;SDS011;19885;42.208;24.952;2023-03-01T10:28:26;7.33;;;2.00;;
33553;SDS011;19885;42.208;24.952;2023-03-01T10:30:50;4.43;;;2.70;;
33553;SDS011;19885;42.208;24.952;2023-03-01T10:35:46;2.10;;;1.90;;
33553;SDS011;19885;42.208;24.952;2023-03-01T10:38:17;8.30;;;2.10;;
33553;SDS011;19885;42.208;24.952;2023-03-01T10:40:55;2.80;;;2.50;;
33553;SDS011;19885;42.208;24.952;2023-03-01T10:43:47;3.00;;;2.40;;
33553;SDS011;19885;42.208;24.952;2023-03-01T10:51:43;4.83;;;2.67;;
33553;SDS011;19885;42.208;24.952;2023-03-01T10:54:26;2.87;;;2.27;;
33553;SDS011;19885;42.208;24.952;2023-03-01T10:57:04;5.77;;;2.63;;
33553;SDS011;19885;42.208;24.952;2023-03-01T10:59:34;5.63;;;3.13;;
33553;SDS011;19885;42.208;24.952;2023-03-01T11:04:57;2.77;;;2.13;;
33553;SDS011;19885;42.208;24.952;2023-03-01T11:07:48;6.20;;;2.90;;
33553;SDS011;19885;42.208;24.952;2023-03-01T11:10:20;3.30;;;2.60;;
33553;SDS011;19885;42.208;24.952;2023-03-01T11:12:48;4.90;;;3.20;;
33553;SDS011;19885;42.208;24.952;2023-03-01T11:15:23;5.87;;;3.43;;
33553;SDS011;19885;42.208;24.952;2023-03-01T11:17:51;5.57;;;3.30;;
33553;SDS011;19885;42.208;24.952;2023-03-01T11:23:03;4.60;;;2.83;;
33553;SDS011;19885;42.208;24.952;2023-03-01T11:25:35;5.03;;;2.20;;
33553;SDS011;19885;42.208;24.952;2023-03-01T11:28:05;4.67;;;3.07;;
33553;SDS011;19885;42.208;24.952;2023-03-01T11:30:53;3.23;;;2.30;;
33553;SDS011;19885;42.208;24.952;2023-03-01T11:38:48;3.47;;;2.57;;
33553;SDS011;19885;42.208;24.952;2023-03-01T11:41:25;4.10;;;2.37;;
33553;SDS011;19885;42.208;24.952;2023-03-01T11:44:29;3.47;;;2.63;;
33553;SDS011;19885;42.208;24.952;2023-03-01T11:55:19;4.20;;;2.90;;
33553;SDS011;19885;42.208;24.952;2023-03-01T12:17:57;8.67;;;2.70;;
33553;SDS011;19885;42.208;24.952;2023-03-01T12:31:17;6.10;;;2.97;;
33553;SDS011;19885;42.208;24.952;2023-03-01T12:51:20;6.20;;;3.40;;
33553;SDS011;19885;42.208;24.952;2023-03-01T12:53:53;7.23;;;3.07;;
33553;SDS011;19885;42.208;24.952;2023-03-01T12:56:22;3.30;;;3.00;;
33553;SDS011;19885;42.208;24.952;2023-03-01T13:01:35;4.50;;;3.10;;
33553;SDS011;19885;42.208;24.952;2023-03-01T13:16:19;8.27;;;3.40;;
33553;SDS011;19885;42.208;24.952;2023-03-01T13:18:49;4.83;;;3.83;;
33553;SDS011;19885;42.208;24.952;2023-03-01T13:21:33;9.60;;;3.83;;
33553;SDS011;19885;42.208;24.952;2023-03-01T13:24:01;8.10;;;3.53;;
33553;SDS011;19885;42.208;24.952;2023-03-01T13:26:27;6.20;;;3.57;;
33553;SDS011;19885;42.208;24.952;2023-03-01T13:28:54;9.13;;;3.50;;
33553;SDS011;19885;42.208;24.952;2023-03-01T13:33:57;4.53;;;2.70;;
33553;SDS011;19885;42.208;24.952;2023-03-01T13:44:13;11.53;;;4.97;;
33553;SDS011;19885;42.208;24.952;2023-03-01T13:46:56;4.50;;;3.70;;
33553;SDS011;19885;42.208;24.952;2023-03-01T13:49:29;7.20;;;4.80;;
33553;SDS011;19885;42.208;24.952;2023-03-01T13:52:30;7.93;;;4.00;;
33553;SDS011;19885;42.208;24.952;2023-03-01T13:58:12;9.20;;;4.30;;
33553;SDS011;19885;42.208;24.952;2023-03-01T14:00:46;13.27;;;7.17;;
33553;SDS011;19885;42.208;24.952;2023-03-01T14:03:13;10.27;;;5.93;;
33553;SDS011;19885;42.208;24.952;2023-03-01T14:05:42;8.00;;;4.90;;
33553;SDS011;19885;42.208;24.952;2023-03-01T14:08:28;7.53;;;4.93;;
33553;SDS011;19885;42.208;24.952;2023-03-01T14:21:37;6.80;;;4.77;;
33553;SDS011;19885;42.208;24.952;2023-03-01T14:24:03;7.00;;;4.17;;
33553;SDS011;19885;42.208;24.952;2023-03-01T14:26:30;5.50;;;4.07;;
33553;SDS011;19885;42.208;24.952;2023-03-01T14:29:00;4.77;;;3.67;;
33553;SDS011;19885;42.208;24.952;2023-03-01T14:33:55;6.10;;;3.70;;
33553;SDS011;19885;42.208;24.952;2023-03-01T14:36:25;4.87;;;3.67;;
33553;SDS011;19885;42.208;24.952;2023-03-01T14:38:53;14.93;;;4.87;;
33553;SDS011;19885;42.208;24.952;2023-03-01T14:41:23;9.23;;;5.17;;
33553;SDS011;19885;42.208;24.952;2023-03-01T14:46:28;6.67;;;4.93;;
33553;SDS011;19885;42.208;24.952;2023-03-01T14:49:02;6.83;;;2.83;;
33553;SDS011;19885;42.208;24.952;2023-03-01T14:51:35;4.57;;;3.57;;
33553;SDS011;19885;42.208;24.952;2023-03-01T14:54:03;3.30;;;2.77;;
33553;SDS011;19885;42.208;24.952;2023-03-01T14:56:47;5.50;;;3.47;;
33553;SDS011;19885;42.208;24.952;2023-03-01T14:59:18;6.17;;;4.20;;
33553;SDS011;19885;42.208;24.952;2023-03-01T15:01:53;16.03;;;7.33;;
33553;SDS011;19885;42.208;24.952;2023-03-01T15:04:25;15.73;;;8.70;;
33553;SDS011;19885;42.208;24.952;2023-03-01T15:06:53;12.50;;;7.20;;
33553;SDS011;19885;42.208;24.952;2023-03-01T15:09:20;12.53;;;5.97;;
33553;SDS011;19885;42.208;24.952;2023-03-01T15:11:47;10.47;;;7.07;;
33553;SDS011;19885;42.208;24.952;2023-03-01T15:14:26;6.13;;;4.63;;
33553;SDS011;19885;42.208;24.952;2023-03-01T15:17:41;6.80;;;4.57;;
33553;SDS011;19885;42.208;24.952;2023-03-01T15:20:03;8.10;;;4.70;;
33553;SDS011;19885;42.208;24.952;2023-03-01T15:22:31;7.63;;;5.23;;
33553;SDS011;19885;42.208;24.952;2023-03-01T15:25:02;9.90;;;6.00;;
33553;SDS011;19885;42.208;24.952;2023-03-01T15:27:29;9.23;;;6.00;;
33553;SDS011;19885;42.208;24.952;2023-03-01T15:29:55;8.83;;;5.47;;
33553;SDS011;19885;42.208;24.952;2023-03-01T15:34:55;6.60;;;4.67;;
33553;SDS011;19885;42.208;24.952;2023-03-01T15:37:39;6.57;;;3.83;;
33553;SDS011;19885;42.208;24.952;2023-03-01T15:40:25;6.30;;;4.67;;
33553;SDS011;19885;42.208;24.952;2023-03-01T15:45:26;6.50;;;4.37;;
33553;SDS011;19885;42.208;24.952;2023-03-01T15:47:57;8.73;;;5.50;;
33553;SDS011;19885;42.208;24.952;2023-03-01T15:50:37;8.83;;;6.10;;
33553;SDS011;19885;42.208;24.952;2023-03-01T15:53:06;12.87;;;7.03;;
33553;SDS011;19885;42.208;24.952;2023-03-01T15:55:36;9.03;;;5.53;;
33553;SDS011;19885;42.208;24.952;2023-03-01T15:58:04;8.37;;;5.03;;
33553;SDS011;19885;42.208;24.952;2023-03-01T16:00:37;8.40;;;5.10;;
33553;SDS011;19885;42.208;24.952;2023-03-01T16:03:04;9.17;;;5.37;;
33553;SDS011;19885;42.208;24.952;2023-03-01T16:05:32;8.67;;;5.90;;
33553;SDS011;19885;42.208;24.952;2023-03-01T16:08:01;10.93;;;5.43;;
33553;SDS011;19885;42.208;24.952;2023-03-01T16:10:32;16.70;;;6.37;;
33553;SDS011;19885;42.208;24.952;2023-03-01T16:12:59;8.07;;;5.33;;
33553;SDS011;19885;42.208;24.952;2023-03-01T16:15:27;7.50;;;5.00;;
33553;SDS011;19885;42.208;24.952;2023-03-01T16:17:55;13.27;;;5.77;;
33553;SDS011;19885;42.208;24.952;2023-03-01T16:20:23;12.73;;;5.80;;
33553;SDS011;19885;42.208;24.952;2023-03-01T16:22:49;8.90;;;5.37;;
33553;SDS011;19885;42.208;24.952;2023-03-01T16:25:17;11.13;;;6.77;;
33553;SDS011;19885;42.208;24.952;2023-03-01T16:27:48;7.93;;;5.43;;
33553;SDS011;19885;42.208;24.952;2023-03-01T16:30:15;12.93;;;7.30;;
33553;SDS011;19885;42.208;24.952;2023-03-01T16:32:47;18.73;;;7.80;;
33553;SDS011;19885;42.208;24.952;2023-03-01T16:35:15;11.33;;;7.73;;
33553;SDS011;19885;42.208;24.952;2023-03-01T16:37:42;8.63;;;5.50;;
33553;SDS011;19885;42.208;24.952;2023-03-01T16:40:27;9.43;;;5.53;;
33553;SDS011;19885;42.208;24.952;2023-03-01T16:42:54;7.93;;;5.00;;
33553;SDS011;19885;42.208;24.952;2023-03-01T16:45:24;9.67;;;6.03;;
33553;SDS011;19885;42.208;24.952;2023-03-01T16:47:54;11.37;;;6.13;;
33553;SDS011;19885;42.208;24.952;2023-03-01T16:50:20;7.93;;;6.17;;
33553;SDS011;19885;42.208;24.952;2023-03-01T16:52:46;10.37;;;6.57;;
33553;SDS011;19885;42.208;24.952;2023-03-01T16:55:11;9.73;;;6.20;;
33553;SDS011;19885;42.208;24.952;2023-03-01T16:57:37;9.33;;;6.10;;
33553;SDS011;19885;42.208;24.952;2023-03-01T17:00:04;7.50;;;5.53;;
33553;SDS011;19885;42.208;24.952;2023-03-01T17:02:33;10.90;;;6.87;;
33553;SDS011;19885;42.208;24.952;2023-03-01T17:04:59;8.53;;;5.83;;
33553;SDS011;19885;42.208;24.952;2023-03-01T17:07:25;7.87;;;5.27;;
33553;SDS011;19885;42.208;24.952;2023-03-01T17:09:50;6.27;;;4.57;;
33553;SDS011;19885;42.208;24.952;2023-03-01T17:12:16;14.00;;;7.10;;
33553;SDS011;19885;42.208;24.952;2023-03-01T17:14:42;11.27;;;6.30;;
33553;SDS011;19885;42.208;24.952;2023-03-01T17:17:08;17.67;;;8.27;;
33553;SDS011;19885;42.208;24.952;2023-03-01T17:19:38;18.53;;;10.80;;
33553;SDS011;19885;42.208;24.952;2023-03-01T17:22:06;20.67;;;11.03;;